createdAt,value
2017-10-25T00:00:07.503Z,89.00
2017-10-25T00:01:10.798Z,88.90
2017-10-25T00:02:13.328Z,88.90
2017-10-25T00:03:15.913Z,89.60
2017-10-25T00:04:18.433Z,88.90
2017-10-25T00:05:20.953Z,88.80
2017-10-25T00:06:24.265Z,89.40
2017-10-25T00:07:26.805Z,88.80
2017-10-25T00:08:30.117Z,89.60
2017-10-25T00:09:32.651Z,88.90
2017-10-25T00:10:35.941Z,88.90
2017-10-25T00:11:39.260Z,88.90
2017-10-25T00:12:41.782Z,88.90
2017-10-25T00:13:45.121Z,88.90
2017-10-25T00:14:47.643Z,88.90
2017-10-25T00:15:51.126Z,89.00
2017-10-25T00:16:54.412Z,89.00
2017-10-25T00:17:57.701Z,89.00
2017-10-25T00:19:00.222Z,88.90
2017-10-25T00:20:02.750Z,88.80
2017-10-25T00:21:05.313Z,88.90
2017-10-25T00:22:07.877Z,88.80
2017-10-25T00:23:10.443Z,88.80
2017-10-25T00:24:12.960Z,88.60
2017-10-25T00:25:15.510Z,88.80
2017-10-25T00:26:18.046Z,88.70
2017-10-25T00:27:20.571Z,88.70
2017-10-25T00:28:23.881Z,88.90
2017-10-25T00:29:26.414Z,88.90
2017-10-25T00:30:28.982Z,88.70
2017-10-25T00:31:31.505Z,88.70
2017-10-25T00:32:34.039Z,88.80
2017-10-25T00:33:37.333Z,88.90
2017-10-25T00:34:39.867Z,88.90
2017-10-25T00:35:42.421Z,88.80
2017-10-25T00:36:44.949Z,88.50
2017-10-25T00:37:47.464Z,88.70
2017-10-25T00:38:49.989Z,88.70
2017-10-25T00:39:52.749Z,88.50
2017-10-25T00:40:55.293Z,88.60
2017-10-25T00:41:58.594Z,88.50
2017-10-25T00:43:01.114Z,88.50
2017-10-25T00:44:03.668Z,88.60
2017-10-25T00:45:06.190Z,88.70
2017-10-25T00:46:08.835Z,88.90
2017-10-25T00:47:12.130Z,88.70
2017-10-25T00:48:14.659Z,88.70
2017-10-25T00:49:17.177Z,88.80
2017-10-25T00:50:19.757Z,88.60
2017-10-25T00:51:22.271Z,88.70
2017-10-25T00:52:24.796Z,88.60
2017-10-25T00:53:27.329Z,89.00
2017-10-25T00:54:29.844Z,88.70
2017-10-25T00:55:32.427Z,88.70
2017-10-25T00:56:34.946Z,88.70
2017-10-25T00:57:37.502Z,88.80
2017-10-25T00:58:40.026Z,88.80
2017-10-25T00:59:42.542Z,88.70
2017-10-25T01:00:45.100Z,88.80
2017-10-25T01:01:47.629Z,88.80
2017-10-25T01:02:50.145Z,88.80
2017-10-25T01:03:52.682Z,88.80
2017-10-25T01:04:55.223Z,88.80
2017-10-25T01:05:57.785Z,88.80
2017-10-25T01:07:00.315Z,88.80
2017-10-25T01:08:02.837Z,88.80
2017-10-25T01:09:06.127Z,88.90
2017-10-25T01:10:09.431Z,88.70
2017-10-25T01:11:12.009Z,88.70
2017-10-25T01:12:14.610Z,88.70
2017-10-25T01:13:17.127Z,88.80
2017-10-25T01:14:19.651Z,88.80
2017-10-25T01:15:22.194Z,88.80
2017-10-25T01:16:24.756Z,88.60
2017-10-25T01:17:27.287Z,88.70
2017-10-25T01:18:29.841Z,88.70
2017-10-25T01:19:33.138Z,88.60
2017-10-25T01:20:35.662Z,88.60
2017-10-25T01:21:38.210Z,88.60
2017-10-25T01:22:40.734Z,88.60
2017-10-25T01:23:43.253Z,88.70
2017-10-25T01:24:45.803Z,88.60
2017-10-25T01:25:48.320Z,88.70
2017-10-25T01:26:50.852Z,88.60
2017-10-25T01:27:53.371Z,88.70
2017-10-25T01:28:55.931Z,88.70
2017-10-25T01:29:58.481Z,88.60
2017-10-25T01:31:01.770Z,88.70
2017-10-25T01:32:04.295Z,88.60
2017-10-25T01:33:06.818Z,88.60
2017-10-25T01:34:09.376Z,89.30
2017-10-25T01:35:11.930Z,88.80
2017-10-25T01:36:15.217Z,88.90
2017-10-25T01:37:17.789Z,88.80
2017-10-25T01:38:20.317Z,88.80
2017-10-25T01:39:22.838Z,88.90
2017-10-25T01:40:25.374Z,89.10
2017-10-25T01:41:28.696Z,89.10
2017-10-25T01:42:31.274Z,89.10
2017-10-25T01:43:33.792Z,89.00
2017-10-25T01:44:37.087Z,89.20
2017-10-25T01:45:39.614Z,89.20
2017-10-25T01:46:42.153Z,88.90
2017-10-25T01:47:44.723Z,89.00
2017-10-25T01:48:47.290Z,89.00
2017-10-25T01:49:49.838Z,89.00
2017-10-25T01:50:52.356Z,89.10
2017-10-25T01:51:54.940Z,89.40
2017-10-25T01:52:57.471Z,89.40
2017-10-25T01:53:59.993Z,89.30
2017-10-25T01:55:02.522Z,89.30
2017-10-25T01:56:05.052Z,89.40
2017-10-25T01:57:07.628Z,89.50
2017-10-25T01:58:10.154Z,89.40
2017-10-25T01:59:12.680Z,89.40
2017-10-25T02:00:15.209Z,89.30
2017-10-25T02:01:17.732Z,89.40
2017-10-25T02:02:21.074Z,89.40
2017-10-25T02:03:23.597Z,89.40
2017-10-25T02:04:26.134Z,89.20
2017-10-25T02:05:29.437Z,89.20
2017-10-25T02:06:31.972Z,89.20
2017-10-25T02:07:34.541Z,89.20
2017-10-25T02:08:37.085Z,89.20
2017-10-25T02:09:39.618Z,89.30
2017-10-25T02:10:42.139Z,89.50
2017-10-25T02:11:44.657Z,89.40
2017-10-25T02:12:47.249Z,89.40
2017-10-25T02:13:49.804Z,89.40
2017-10-25T02:14:52.335Z,89.40
2017-10-25T02:15:55.629Z,89.60
2017-10-25T02:16:58.153Z,89.60
2017-10-25T02:18:00.701Z,89.80
2017-10-25T02:19:03.230Z,89.70
2017-10-25T02:20:05.760Z,89.70
2017-10-25T02:21:08.277Z,89.70
2017-10-25T02:22:10.807Z,89.20
2017-10-25T02:23:14.123Z,89.70
2017-10-25T02:24:16.647Z,89.70
2017-10-25T02:25:19.942Z,90.00
2017-10-25T02:26:23.263Z,90.00
2017-10-25T02:27:25.786Z,90.00
2017-10-25T02:28:29.075Z,89.90
2017-10-25T02:29:32.400Z,89.80
2017-10-25T02:30:34.974Z,89.70
2017-10-25T02:31:37.502Z,89.80
2017-10-25T02:32:40.029Z,89.80
2017-10-25T02:33:42.552Z,89.80
2017-10-25T02:34:45.067Z,90.00
2017-10-25T02:35:48.403Z,89.80
2017-10-25T02:36:50.917Z,89.80
2017-10-25T02:37:53.455Z,89.80
2017-10-25T02:38:56.031Z,89.70
2017-10-25T02:39:58.554Z,89.70
2017-10-25T02:41:01.086Z,89.70
2017-10-25T02:42:03.622Z,89.70
2017-10-25T02:43:06.145Z,90.20
2017-10-25T02:44:08.717Z,90.00
2017-10-25T02:45:11.246Z,90.00
2017-10-25T02:46:13.766Z,89.90
2017-10-25T02:47:16.314Z,90.00
2017-10-25T02:48:18.843Z,90.00
2017-10-25T02:49:21.411Z,90.00
2017-10-25T02:50:23.938Z,89.90
2017-10-25T02:51:26.507Z,90.00
2017-10-25T02:52:29.042Z,90.00
2017-10-25T02:53:31.558Z,90.00
2017-10-25T02:54:34.103Z,90.00
2017-10-25T02:55:36.633Z,90.00
2017-10-25T02:56:39.955Z,90.00
2017-10-25T02:57:42.521Z,90.00
2017-10-25T02:58:45.041Z,89.90
2017-10-25T02:59:48.347Z,90.00
2017-10-25T03:00:50.877Z,90.00
2017-10-25T03:01:53.472Z,89.70
2017-10-25T03:02:56.052Z,89.60
2017-10-25T03:03:58.570Z,89.50
2017-10-25T03:05:01.088Z,89.40
2017-10-25T03:06:03.610Z,89.40
2017-10-25T03:07:06.128Z,89.40
2017-10-25T03:08:08.690Z,89.60
2017-10-25T03:09:11.231Z,89.60
2017-10-25T03:10:13.774Z,90.10
2017-10-25T03:11:16.314Z,89.50
2017-10-25T03:12:18.882Z,89.40
2017-10-25T03:13:21.449Z,89.40
2017-10-25T03:14:23.962Z,89.50
2017-10-25T03:15:27.247Z,89.60
2017-10-25T03:16:29.774Z,89.50
2017-10-25T03:17:32.311Z,89.70
2017-10-25T03:18:35.530Z,89.90
2017-10-25T03:19:38.053Z,90.00
2017-10-25T03:20:40.631Z,89.90
2017-10-25T03:21:43.195Z,89.80
2017-10-25T03:22:45.762Z,89.90
2017-10-25T03:23:48.316Z,90.00
2017-10-25T03:24:50.828Z,90.00
2017-10-25T03:25:53.464Z,90.10
2017-10-25T03:26:55.983Z,90.10
2017-10-25T03:27:59.306Z,90.20
2017-10-25T03:29:01.826Z,90.20
2017-10-25T03:30:05.125Z,90.20
2017-10-25T03:31:07.707Z,90.20
2017-10-25T03:32:10.229Z,90.20
2017-10-25T03:33:12.758Z,90.20
2017-10-25T03:34:15.291Z,90.20
2017-10-25T03:35:17.814Z,90.20
2017-10-25T03:36:20.410Z,90.20
2017-10-25T03:37:24.615Z,90.20
2017-10-25T03:38:27.944Z,90.20
2017-10-25T03:39:30.465Z,90.20
2017-10-25T03:40:33.786Z,90.20
2017-10-25T03:41:36.353Z,90.20
2017-10-25T03:42:38.874Z,90.10
2017-10-25T03:43:42.162Z,90.10
2017-10-25T03:44:45.453Z,90.10
2017-10-25T03:45:48.750Z,90.00
2017-10-25T03:46:51.317Z,90.00
2017-10-25T03:47:53.941Z,90.00
2017-10-25T03:48:57.363Z,90.00
2017-10-25T03:49:59.897Z,90.00
2017-10-25T03:51:02.417Z,90.00
2017-10-25T03:52:04.981Z,90.00
2017-10-25T03:53:07.509Z,90.00
2017-10-25T03:54:10.046Z,90.00
2017-10-25T03:55:12.583Z,90.00
2017-10-25T03:56:15.110Z,90.00
2017-10-25T03:57:18.435Z,90.00
2017-10-25T03:58:20.958Z,90.00
2017-10-25T03:59:24.242Z,90.00
2017-10-25T04:00:27.534Z,90.10
2017-10-25T04:01:30.826Z,90.00
2017-10-25T04:02:34.150Z,90.10
2017-10-25T04:03:36.673Z,90.00
2017-10-25T04:04:39.966Z,90.00
2017-10-25T04:05:42.492Z,90.00
2017-10-25T04:06:45.025Z,90.10
2017-10-25T04:07:47.582Z,90.10
2017-10-25T04:08:50.097Z,90.10
2017-10-25T04:09:52.626Z,90.20
2017-10-25T04:10:55.153Z,90.20
2017-10-25T04:11:57.685Z,90.30
2017-10-25T04:13:00.257Z,90.20
2017-10-25T04:14:02.792Z,90.20
2017-10-25T04:15:05.314Z,90.20
2017-10-25T04:16:08.611Z,90.30
2017-10-25T04:17:11.142Z,90.30
2017-10-25T04:18:13.702Z,90.30
2017-10-25T04:19:16.264Z,90.40
2017-10-25T04:20:18.797Z,90.30
2017-10-25T04:21:21.327Z,90.40
2017-10-25T04:22:24.611Z,90.30
2017-10-25T04:23:27.947Z,90.30
2017-10-25T04:24:30.461Z,90.20
2017-10-25T04:25:33.751Z,90.20
2017-10-25T04:26:36.283Z,90.10
2017-10-25T04:27:38.822Z,90.10
2017-10-25T04:28:41.380Z,90.00
2017-10-25T04:29:43.908Z,90.10
2017-10-25T04:30:47.207Z,90.30
2017-10-25T04:31:49.736Z,90.30
2017-10-25T04:32:52.272Z,90.30
2017-10-25T04:33:54.835Z,90.30
2017-10-25T04:34:57.358Z,90.40
2017-10-25T04:36:00.700Z,90.50
2017-10-25T04:37:03.242Z,90.60
2017-10-25T04:38:05.774Z,90.60
2017-10-25T04:39:08.326Z,90.50
2017-10-25T04:40:11.619Z,90.50
2017-10-25T04:41:14.959Z,90.50
2017-10-25T04:42:17.484Z,90.50
2017-10-25T04:43:20.019Z,90.60
2017-10-25T04:44:23.321Z,90.60
2017-10-25T04:45:26.657Z,90.60
2017-10-25T04:46:29.188Z,90.60
2017-10-25T04:47:31.726Z,90.60
2017-10-25T04:48:35.022Z,90.80
2017-10-25T04:49:38.323Z,90.80
2017-10-25T04:50:40.890Z,90.80
2017-10-25T04:51:43.429Z,91.10
2017-10-25T04:52:46.723Z,90.90
2017-10-25T04:53:50.019Z,90.90
2017-10-25T04:54:52.545Z,90.90
2017-10-25T04:55:55.115Z,90.80
2017-10-25T04:56:57.641Z,90.70
2017-10-25T04:58:00.164Z,90.70
2017-10-25T04:59:03.468Z,90.70
2017-10-25T05:00:06.006Z,90.70
2017-10-25T05:01:08.570Z,90.80
2017-10-25T05:02:11.098Z,90.90
2017-10-25T05:03:13.651Z,91.10
2017-10-25T05:04:16.177Z,90.90
2017-10-25T05:05:19.465Z,90.80
2017-10-25T05:06:22.760Z,90.90
2017-10-25T05:07:26.050Z,90.90
2017-10-25T05:08:28.695Z,90.90
2017-10-25T05:09:31.981Z,90.80
2017-10-25T05:10:35.278Z,90.90
2017-10-25T05:11:38.569Z,90.90
2017-10-25T05:12:41.098Z,90.90
2017-10-25T05:13:43.672Z,90.80
2017-10-25T05:14:46.196Z,90.80
2017-10-25T05:15:48.726Z,90.80
2017-10-25T05:16:52.010Z,90.90
2017-10-25T05:17:54.549Z,90.80
2017-10-25T05:18:57.105Z,90.80
2017-10-25T05:19:59.658Z,90.80
2017-10-25T05:21:02.177Z,90.90
2017-10-25T05:22:04.700Z,90.90
2017-10-25T05:23:07.248Z,90.90
2017-10-25T05:24:09.814Z,90.90
2017-10-25T05:25:12.330Z,90.90
2017-10-25T05:26:15.618Z,90.90
2017-10-25T05:27:18.905Z,90.90
2017-10-25T05:28:22.185Z,90.90
2017-10-25T05:29:25.513Z,90.90
2017-10-25T05:30:28.038Z,90.90
2017-10-25T05:31:30.595Z,91.00
2017-10-25T05:32:33.149Z,91.00
2017-10-25T05:33:35.679Z,91.00
2017-10-25T05:34:38.242Z,91.10
2017-10-25T05:35:40.772Z,91.10
2017-10-25T05:36:43.298Z,91.00
2017-10-25T05:37:45.825Z,91.00
2017-10-25T05:38:48.341Z,91.00
2017-10-25T05:39:50.908Z,91.10
2017-10-25T05:40:53.437Z,91.20
2017-10-25T05:41:55.996Z,91.20
2017-10-25T05:42:58.526Z,91.20
2017-10-25T05:44:01.818Z,91.40
2017-10-25T05:45:04.349Z,91.40
2017-10-25T05:46:07.000Z,91.40
2017-10-25T05:47:09.552Z,91.50
2017-10-25T05:48:12.064Z,91.60
2017-10-25T05:49:15.354Z,91.60
2017-10-25T05:50:18.642Z,91.70
2017-10-25T05:51:21.970Z,91.70
2017-10-25T05:52:24.489Z,91.70
2017-10-25T05:53:27.818Z,91.80
2017-10-25T05:54:30.332Z,91.80
2017-10-25T05:55:33.643Z,91.90
2017-10-25T05:56:36.178Z,91.90
2017-10-25T05:57:39.475Z,92.10
2017-10-25T05:58:42.811Z,91.80
2017-10-25T05:59:45.401Z,91.80
2017-10-25T06:00:47.933Z,91.80
2017-10-25T06:01:50.471Z,91.80
2017-10-25T06:02:53.017Z,91.70
2017-10-25T06:03:56.306Z,91.70
2017-10-25T06:04:59.639Z,91.60
2017-10-25T06:06:02.158Z,91.60
2017-10-25T06:07:05.443Z,91.60
2017-10-25T06:08:08.734Z,91.50
2017-10-25T06:09:12.017Z,91.50
2017-10-25T06:10:15.333Z,91.40
2017-10-25T06:11:17.900Z,91.40
2017-10-25T06:12:20.423Z,91.40
2017-10-25T06:13:23.721Z,91.40
2017-10-25T06:14:26.344Z,91.40
2017-10-25T06:15:28.861Z,91.40
2017-10-25T06:16:31.405Z,91.30
2017-10-25T06:17:34.742Z,91.40
2017-10-25T06:18:37.263Z,91.40
2017-10-25T06:19:40.557Z,91.30
2017-10-25T06:20:43.100Z,91.30
2017-10-25T06:21:46.385Z,91.30
2017-10-25T06:22:49.733Z,91.30
2017-10-25T06:23:52.282Z,91.30
2017-10-25T06:24:54.805Z,91.30
2017-10-25T06:25:58.097Z,91.30
2017-10-25T06:27:01.403Z,91.30
2017-10-25T06:28:04.883Z,91.30
2017-10-25T06:29:07.445Z,91.20
2017-10-25T06:30:09.973Z,91.20
2017-10-25T06:31:12.489Z,91.20
2017-10-25T06:32:15.017Z,91.20
2017-10-25T06:33:17.578Z,91.20
2017-10-25T06:34:20.099Z,91.30
2017-10-25T06:35:22.618Z,91.30
2017-10-25T06:36:25.906Z,91.30
2017-10-25T06:37:29.194Z,91.30
2017-10-25T06:38:32.541Z,91.30
2017-10-25T06:39:35.058Z,91.30
2017-10-25T06:40:37.625Z,91.40
2017-10-25T06:41:40.154Z,91.30
2017-10-25T06:42:42.679Z,91.40
2017-10-25T06:43:45.271Z,91.50
2017-10-25T06:44:47.791Z,91.60
2017-10-25T06:45:50.315Z,91.50
2017-10-25T06:46:52.843Z,91.60
2017-10-25T06:47:55.378Z,91.60
2017-10-25T06:48:57.933Z,91.50
2017-10-25T06:50:01.225Z,91.70
2017-10-25T06:51:03.758Z,91.60
2017-10-25T06:52:06.279Z,91.60
2017-10-25T06:53:08.832Z,91.50
2017-10-25T06:54:11.394Z,91.50
2017-10-25T06:55:13.932Z,91.50
2017-10-25T06:56:17.237Z,91.60
2017-10-25T06:57:19.775Z,91.30
2017-10-25T06:58:22.333Z,91.30
2017-10-25T06:59:24.888Z,91.20
2017-10-25T07:00:27.579Z,91.30
2017-10-25T07:01:30.114Z,91.30
2017-10-25T07:02:32.642Z,91.20
2017-10-25T07:03:35.206Z,91.10
2017-10-25T07:04:37.738Z,91.00
2017-10-25T07:05:40.256Z,91.00
2017-10-25T07:06:42.805Z,91.00
2017-10-25T07:07:46.098Z,90.80
2017-10-25T07:08:48.624Z,90.80
2017-10-25T07:09:51.147Z,90.90
2017-10-25T07:10:53.661Z,90.70
2017-10-25T07:11:56.214Z,90.70
2017-10-25T07:12:58.731Z,90.60
2017-10-25T07:14:01.282Z,90.50
2017-10-25T07:15:04.570Z,90.40
2017-10-25T07:16:07.862Z,90.40
2017-10-25T07:17:10.416Z,90.40
2017-10-25T07:18:13.702Z,90.30
2017-10-25T07:19:16.278Z,90.30
2017-10-25T07:20:18.802Z,90.20
2017-10-25T07:21:21.329Z,90.20
2017-10-25T07:22:23.860Z,90.30
2017-10-25T07:23:27.157Z,90.20
2017-10-25T07:24:29.816Z,90.20
2017-10-25T07:25:32.350Z,90.10
2017-10-25T07:26:34.909Z,90.10
2017-10-25T07:27:37.446Z,90.10
2017-10-25T07:28:39.973Z,90.10
2017-10-25T07:29:43.290Z,90.10
2017-10-25T07:30:45.817Z,90.10
2017-10-25T07:31:49.116Z,90.00
2017-10-25T07:32:52.394Z,89.90
2017-10-25T07:33:55.686Z,89.80
2017-10-25T07:34:58.243Z,89.80
2017-10-25T07:36:01.522Z,89.70
2017-10-25T07:37:04.810Z,90.00
2017-10-25T07:38:08.139Z,89.80
2017-10-25T07:39:10.654Z,89.70
2017-10-25T07:40:13.937Z,89.80
2017-10-25T07:41:17.242Z,89.50
2017-10-25T07:42:19.802Z,89.50
2017-10-25T07:43:23.086Z,89.30
2017-10-25T07:44:25.730Z,89.30
2017-10-25T07:45:28.282Z,89.30
2017-10-25T07:46:30.794Z,89.30
2017-10-25T07:47:33.333Z,89.20
2017-10-25T07:48:36.617Z,89.10
2017-10-25T07:49:39.908Z,88.70
2017-10-25T07:50:43.209Z,88.80
2017-10-25T07:51:45.766Z,88.80
2017-10-25T07:52:49.054Z,88.60
2017-10-25T07:53:51.622Z,88.70
2017-10-25T07:54:54.896Z,88.70
2017-10-25T07:55:58.198Z,88.50
2017-10-25T07:57:00.739Z,88.50
2017-10-25T07:58:04.033Z,88.40
2017-10-25T07:59:07.365Z,88.30
2017-10-25T08:00:09.895Z,88.40
2017-10-25T08:01:12.422Z,88.50
2017-10-25T08:02:14.936Z,88.30
2017-10-25T08:03:17.479Z,88.20
2017-10-25T08:04:20.777Z,88.30
2017-10-25T08:05:23.291Z,88.30
2017-10-25T08:06:25.803Z,88.50
2017-10-25T08:07:28.326Z,88.70
2017-10-25T08:08:30.907Z,88.30
2017-10-25T08:09:33.431Z,88.30
2017-10-25T08:10:36.026Z,87.90
2017-10-25T08:11:38.563Z,87.70
2017-10-25T08:12:41.098Z,87.70
2017-10-25T08:13:43.653Z,87.90
2017-10-25T08:14:46.951Z,87.70
2017-10-25T08:15:49.477Z,87.60
2017-10-25T08:16:52.003Z,87.70
2017-10-25T08:17:54.541Z,87.50
2017-10-25T08:18:57.832Z,87.10
2017-10-25T08:20:00.369Z,87.10
2017-10-25T08:21:02.892Z,87.30
2017-10-25T08:22:05.416Z,87.60
2017-10-25T08:23:08.762Z,87.30
2017-10-25T08:24:11.282Z,87.30
2017-10-25T08:25:13.805Z,86.80
2017-10-25T08:26:16.329Z,87.20
2017-10-25T08:27:18.845Z,87.20
2017-10-25T08:28:21.422Z,87.20
2017-10-25T08:29:24.726Z,86.10
2017-10-25T08:30:27.262Z,86.00
2017-10-25T08:31:29.794Z,85.90
2017-10-25T08:32:32.322Z,86.00
2017-10-25T08:33:34.875Z,85.80
2017-10-25T08:34:38.198Z,85.70
2017-10-25T08:35:40.726Z,85.70
2017-10-25T08:36:44.025Z,85.70
2017-10-25T08:37:46.558Z,85.70
2017-10-25T08:38:49.101Z,85.50
2017-10-25T08:39:51.682Z,85.60
2017-10-25T08:40:54.210Z,85.30
2017-10-25T08:41:56.728Z,85.20
2017-10-25T08:43:00.034Z,85.40
2017-10-25T08:44:02.573Z,85.20
2017-10-25T08:45:05.918Z,85.40
2017-10-25T08:46:08.470Z,85.40
2017-10-25T08:47:10.997Z,85.80
2017-10-25T08:48:14.294Z,85.00
2017-10-25T08:49:17.578Z,84.70
2017-10-25T08:50:20.904Z,85.20
2017-10-25T08:51:23.432Z,85.20
2017-10-25T08:52:26.732Z,85.40
2017-10-25T08:53:29.266Z,85.50
2017-10-25T08:54:31.789Z,84.70
2017-10-25T08:55:34.358Z,84.60
2017-10-25T08:56:36.965Z,84.40
2017-10-25T08:57:40.261Z,84.20
2017-10-25T08:58:43.549Z,84.40
2017-10-25T08:59:46.866Z,84.20
2017-10-25T09:00:49.390Z,84.20
2017-10-25T09:01:52.675Z,84.30
2017-10-25T09:02:56.010Z,83.90
2017-10-25T09:03:58.529Z,83.90
2017-10-25T09:05:01.811Z,83.50
2017-10-25T09:06:05.118Z,83.20
2017-10-25T09:07:07.656Z,83.20
2017-10-25T09:08:10.979Z,83.60
2017-10-25T09:09:13.498Z,83.60
2017-10-25T09:10:16.021Z,83.70
2017-10-25T09:11:18.540Z,83.90
2017-10-25T09:12:21.831Z,83.90
2017-10-25T09:13:24.387Z,83.90
2017-10-25T09:14:27.700Z,83.80
2017-10-25T09:15:30.221Z,83.80
2017-10-25T09:16:32.746Z,83.90
2017-10-25T09:17:35.262Z,83.80
2017-10-25T09:18:38.596Z,83.40
2017-10-25T09:19:41.123Z,83.30
2017-10-25T09:20:44.408Z,83.20
2017-10-25T09:21:47.705Z,83.00
2017-10-25T09:22:50.226Z,83.00
2017-10-25T09:23:52.774Z,82.90
2017-10-25T09:24:55.319Z,83.10
2017-10-25T09:25:57.866Z,82.70
2017-10-25T09:27:00.417Z,82.40
2017-10-25T09:28:03.703Z,82.50
2017-10-25T09:29:06.985Z,82.80
2017-10-25T09:30:10.282Z,82.00
2017-10-25T09:31:12.798Z,82.00
2017-10-25T09:32:15.367Z,82.50
2017-10-25T09:33:17.901Z,82.30
2017-10-25T09:34:20.461Z,82.10
2017-10-25T09:35:22.982Z,82.00
2017-10-25T09:36:25.496Z,81.70
2017-10-25T09:37:28.055Z,81.30
2017-10-25T09:38:30.585Z,80.70
2017-10-25T09:39:33.118Z,80.70
2017-10-25T09:40:35.650Z,80.70
2017-10-25T09:41:38.174Z,80.90
2017-10-25T09:42:40.732Z,80.50
2017-10-25T09:43:43.258Z,81.10
2017-10-25T09:44:45.769Z,80.90
2017-10-25T09:45:48.285Z,80.90
2017-10-25T09:46:50.818Z,80.70
2017-10-25T09:47:54.144Z,80.10
2017-10-25T09:48:56.666Z,80.10
2017-10-25T09:49:59.178Z,80.30
2017-10-25T09:51:01.733Z,80.80
2017-10-25T09:52:04.252Z,81.10
2017-10-25T09:53:06.786Z,80.90
2017-10-25T09:54:09.313Z,81.50
2017-10-25T09:55:11.869Z,81.40
2017-10-25T09:56:15.152Z,80.10
2017-10-25T09:57:18.446Z,79.70
2017-10-25T09:58:21.751Z,78.70
2017-10-25T09:59:24.268Z,78.60
2017-10-25T10:00:26.826Z,77.60
2017-10-25T10:01:29.350Z,77.70
2017-10-25T10:02:31.910Z,76.90
2017-10-25T10:03:34.429Z,76.90
2017-10-25T10:04:36.954Z,77.20
2017-10-25T10:05:39.488Z,76.70
2017-10-25T10:06:42.817Z,76.60
2017-10-25T10:07:45.338Z,76.60
2017-10-25T10:08:48.635Z,77.30
2017-10-25T10:09:51.163Z,77.30
2017-10-25T10:10:53.693Z,77.00
2017-10-25T10:11:56.282Z,74.80
2017-10-25T10:12:58.812Z,73.30
2017-10-25T10:14:01.334Z,72.90
2017-10-25T10:15:03.867Z,73.00
2017-10-25T10:16:06.409Z,73.30
2017-10-25T10:17:08.973Z,73.10
2017-10-25T10:18:11.498Z,72.80
2017-10-25T10:19:14.782Z,71.90
2017-10-25T10:20:18.070Z,71.40
2017-10-25T10:21:21.361Z,71.40
2017-10-25T10:22:24.689Z,71.80
2017-10-25T10:23:27.222Z,71.80
2017-10-25T10:24:29.779Z,72.50
2017-10-25T10:25:33.061Z,73.00
2017-10-25T10:26:36.518Z,71.90
2017-10-25T10:27:39.078Z,71.90
2017-10-25T10:28:41.607Z,71.20
2017-10-25T10:29:44.149Z,71.80
2017-10-25T10:30:47.434Z,72.00
2017-10-25T10:31:50.009Z,71.90
2017-10-25T10:32:52.566Z,71.10
2017-10-25T10:33:55.867Z,72.30
2017-10-25T10:34:58.385Z,72.40
2017-10-25T10:36:00.922Z,73.80
2017-10-25T10:37:03.444Z,73.70
2017-10-25T10:38:06.783Z,75.30
2017-10-25T10:39:09.347Z,75.30
2017-10-25T10:40:11.882Z,73.90
2017-10-25T10:41:14.421Z,73.90
2017-10-25T10:42:17.720Z,74.80
2017-10-25T10:43:21.002Z,74.50
2017-10-25T10:44:24.345Z,75.30
2017-10-25T10:45:26.882Z,75.30
2017-10-25T10:46:29.405Z,75.10
2017-10-25T10:47:32.693Z,74.30
2017-10-25T10:48:35.989Z,74.70
2017-10-25T10:49:38.553Z,74.70
2017-10-25T10:50:41.833Z,74.80
2017-10-25T10:51:44.374Z,74.80
2017-10-25T10:52:46.906Z,75.60
2017-10-25T10:53:49.433Z,75.70
2017-10-25T10:54:52.753Z,75.50
2017-10-25T10:55:55.266Z,75.40
2017-10-25T10:56:57.786Z,76.00
2017-10-25T10:58:00.317Z,76.60
2017-10-25T10:59:03.608Z,76.90
2017-10-25T11:00:06.177Z,76.90
2017-10-25T11:01:08.698Z,76.10
2017-10-25T11:02:11.221Z,76.80
2017-10-25T11:03:13.774Z,76.80
2017-10-25T11:04:16.575Z,76.70
2017-10-25T11:05:19.097Z,76.60
2017-10-25T11:06:22.406Z,76.00
2017-10-25T11:07:24.969Z,76.10
2017-10-25T11:08:27.486Z,76.50
2017-10-25T11:09:30.013Z,76.20
2017-10-25T11:10:32.535Z,76.20
2017-10-25T11:11:35.865Z,76.20
2017-10-25T11:12:38.414Z,76.10
2017-10-25T11:13:40.951Z,75.60
2017-10-25T11:14:44.251Z,75.90
2017-10-25T11:15:46.770Z,75.90
2017-10-25T11:16:49.338Z,75.70
2017-10-25T11:17:51.875Z,75.10
2017-10-25T11:18:54.405Z,74.20
2017-10-25T11:19:56.945Z,73.20
2017-10-25T11:20:59.478Z,73.40
2017-10-25T11:22:02.049Z,74.00
2017-10-25T11:23:04.573Z,74.80
2017-10-25T11:24:07.889Z,74.90
2017-10-25T11:25:10.411Z,74.90
2017-10-25T11:26:13.706Z,75.00
2017-10-25T11:27:17.043Z,74.50
2017-10-25T11:28:19.561Z,74.50
2017-10-25T11:29:22.084Z,74.30
2017-10-25T11:30:24.627Z,74.20
2017-10-25T11:31:27.172Z,74.30
2017-10-25T11:32:29.737Z,74.00
2017-10-25T11:33:32.264Z,73.80
2017-10-25T11:34:34.809Z,73.50
2017-10-25T11:35:37.365Z,72.90
2017-10-25T11:36:40.012Z,72.20
2017-10-25T11:37:42.549Z,71.10
2017-10-25T11:38:45.869Z,72.40
2017-10-25T11:39:48.445Z,72.40
2017-10-25T11:40:50.968Z,72.40
2017-10-25T11:41:53.499Z,72.00
2017-10-25T11:42:56.025Z,72.50
2017-10-25T11:43:58.543Z,68.40
2017-10-25T11:45:01.093Z,66.20
2017-10-25T11:46:03.625Z,65.40
2017-10-25T11:47:06.145Z,65.90
2017-10-25T11:48:08.702Z,64.40
2017-10-25T11:49:11.238Z,64.80
2017-10-25T11:50:13.762Z,64.90
2017-10-25T11:51:17.047Z,62.80
2017-10-25T11:52:20.341Z,61.30
2017-10-25T11:53:22.894Z,61.30
2017-10-25T11:54:26.177Z,60.90
2017-10-25T11:55:29.474Z,61.50
2017-10-25T11:56:32.001Z,61.50
2017-10-25T11:57:34.549Z,60.60
2017-10-25T11:58:37.090Z,61.10
2017-10-25T11:59:39.654Z,61.00
2017-10-25T12:00:42.219Z,60.50
2017-10-25T12:01:44.746Z,61.40
2017-10-25T12:02:48.033Z,62.30
2017-10-25T12:03:51.329Z,62.50
2017-10-25T12:04:53.890Z,62.50
2017-10-25T12:05:57.175Z,63.80
2017-10-25T12:07:00.461Z,62.60
2017-10-25T12:08:03.766Z,62.80
2017-10-25T12:09:06.295Z,62.80
2017-10-25T12:10:09.619Z,61.70
2017-10-25T12:11:12.154Z,61.70
2017-10-25T12:12:15.443Z,62.70
2017-10-25T12:13:18.794Z,62.30
2017-10-25T12:14:21.425Z,62.20
2017-10-25T12:15:23.956Z,61.90
2017-10-25T12:16:27.255Z,62.60
2017-10-25T12:17:29.790Z,62.50
2017-10-25T12:18:33.135Z,62.50
2017-10-25T12:19:35.666Z,62.60
2017-10-25T12:20:38.980Z,62.30
2017-10-25T12:21:41.508Z,62.40
2017-10-25T12:22:44.823Z,62.30
2017-10-25T12:23:47.382Z,62.30
2017-10-25T12:24:49.921Z,62.80
2017-10-25T12:25:53.226Z,62.90
2017-10-25T12:26:55.756Z,62.90
2017-10-25T12:27:58.325Z,63.20
2017-10-25T12:29:00.852Z,63.10
2017-10-25T12:30:03.386Z,62.90
2017-10-25T12:31:05.921Z,63.10
2017-10-25T12:32:08.447Z,62.60
2017-10-25T12:33:11.000Z,62.30
2017-10-25T12:34:13.519Z,61.20
2017-10-25T12:35:16.046Z,60.80
2017-10-25T12:36:18.614Z,61.00
2017-10-25T12:37:21.130Z,60.30
2017-10-25T12:38:24.421Z,59.40
2017-10-25T12:39:27.717Z,59.30
2017-10-25T12:40:30.231Z,59.30
2017-10-25T12:41:32.799Z,58.80
2017-10-25T12:42:35.321Z,59.00
2017-10-25T12:43:37.851Z,59.00
2017-10-25T12:44:40.384Z,58.90
2017-10-25T12:45:42.914Z,59.90
2017-10-25T12:46:45.461Z,59.00
2017-10-25T12:47:48.749Z,58.70
2017-10-25T12:48:52.037Z,58.40
2017-10-25T12:49:55.325Z,57.60
2017-10-25T12:50:57.858Z,57.60
2017-10-25T12:52:01.262Z,56.50
2017-10-25T12:53:04.603Z,55.00
2017-10-25T12:54:07.125Z,55.00
2017-10-25T12:55:10.406Z,54.60
2017-10-25T12:56:13.693Z,53.40
2017-10-25T12:57:16.225Z,53.30
2017-10-25T12:58:18.780Z,52.60
2017-10-25T12:59:21.339Z,51.90
2017-10-25T13:00:23.862Z,52.80
2017-10-25T13:01:26.387Z,52.90
2017-10-25T13:02:28.944Z,52.60
2017-10-25T13:03:31.492Z,52.70
2017-10-25T13:04:34.034Z,54.40
2017-10-25T13:05:36.558Z,54.80
2017-10-25T13:06:39.089Z,56.20
2017-10-25T13:07:41.622Z,56.80
2017-10-25T13:08:44.220Z,57.60
2017-10-25T13:09:46.791Z,58.50
2017-10-25T13:10:49.819Z,58.50
2017-10-25T13:11:55.429Z,59.20
2017-10-25T13:13:00.006Z,59.10
2017-10-25T13:14:06.504Z,59.80
2017-10-25T13:15:10.611Z,59.90
2017-10-25T13:16:16.538Z,60.40
2017-10-25T13:17:22.293Z,60.70
2017-10-25T13:18:25.273Z,60.50
2017-10-25T13:19:27.794Z,60.50
2017-10-25T13:20:30.411Z,61.10
2017-10-25T13:21:32.971Z,61.20
2017-10-25T13:22:35.498Z,60.80
2017-10-25T13:23:38.034Z,60.60
2017-10-25T13:24:40.577Z,61.50
2017-10-25T13:25:43.109Z,61.50
2017-10-25T13:26:45.721Z,61.60
2017-10-25T13:27:49.019Z,62.00